Queen Of Cowichan — CZ4990 — position and weather

sailwx.info

Track history (hours):
 
Tides and Currents Weather Stations Pressure Air Temp Water Temp Dewpoint Dewpoint Depression Visibility Wind Speed Wind Dir Waves Ship Positions

Queen Of Cowichan

Last reported at 2016-Jun-27 01:33 UTC. Time now 2016-Jun-27 02:26 UTC.
Position N 49°23' W 123°16'.

Length 139 m; draft 5.5 m.

Type: Passenger vessel. MMSI: 316001251.

Date/timePositionNaut miles runAvg speedWind from/ knotsBaromVisibWave heightAir tempDewpointWater temp
2016-Jun-27 01:33N 49°23' W 123°16'1515.4
2016-Jun-27 00:33N 49°16' W 123°38'1413.6
2016-Jun-26 23:33N 49°12' W 123°57'1010.2
2016-Jun-26 22:33N 49°16' W 123°43'1918.9
2016-Jun-26 21:34N 49°23' W 123°16'4 4.2
2016-Jun-26 20:34N 49°20' W 123°20'2019.5
2016-Jun-26 19:33N 49°14' W 123°49'6 6.0
2016-Jun-26 18:33N 49°12' W 123°57'0 0.0
2016-Jun-26 17:26N 49°12' W 123°57'0 0.0
2016-Jun-26 16:32N 49°12' W 123°57'0 0.0
2016-Jun-26 15:32N 49°12' W 123°57'0 0.0
2016-Jun-26 14:32N 49°12' W 123°57'0 0.0
2016-Jun-26 13:29N 49°12' W 123°57'0 0.0
2016-Jun-26 12:32N 49°12' W 123°57'0 0.0
2016-Jun-26 11:32N 49°12' W 123°57'0 0.0
2016-Jun-26 10:29N 49°12' W 123°57'0 0.0
2016-Jun-26 09:20N 49°12' W 123°57'0 0.0
2016-Jun-26 08:32N 49°12' W 123°57'0 0.0
2016-Jun-26 07:32N 49°12' W 123°57'0 0.0
2016-Jun-26 02:08N 49°12' W 123°57'0 0.0
2016-Jun-26 01:23N 49°12' W 123°57'0 0.0
2016-Jun-25 23:32N 49°12' W 123°57'0 0.0
2016-Jun-25 22:32N 49°12' W 123°57'0 0.0
2016-Jun-25 21:32N 49°12' W 123°57'0 0.0
2016-Jun-25 20:26N 49°12' W 123°57'0 0.0
2016-Jun-25 19:32N 49°12' W 123°57'0 0.0
2016-Jun-25 18:32N 49°12' W 123°57'0 0.0
2016-Jun-25 17:32N 49°12' W 123°57'0 0.0
2016-Jun-25 16:26N 49°12' W 123°57'0 0.0
2016-Jun-25 15:20N 49°12' W 123°57'0 0.0
2016-Jun-25 14:32N 49°12' W 123°57'0 0.0
2016-Jun-25 13:20N 49°12' W 123°57'0 0.0
2016-Jun-25 12:32N 49°12' W 123°57'0 0.0
2016-Jun-25 11:32N 49°12' W 123°57'0 0.0
2016-Jun-25 09:14N 49°12' W 123°57'0 0.0
2016-Jun-25 06:32N 49°12' W 123°57'0 0.0
2016-Jun-25 05:32N 49°12' W 123°57'0 0.0
2016-Jun-25 04:32N 49°12' W 123°57'0 0.0
2016-Jun-25 03:34N 49°12' W 123°57'1818.3
2016-Jun-25 02:33N 49°18' W 123°31'1110.6
2016-Jun-25 01:33N 49°23' W 123°16'1312.7
2016-Jun-25 00:33N 49°17' W 123°33'1616.4
2016-Jun-24 23:33N 49°12' W 123°57'1111.0
2016-Jun-24 22:33N 49°16' W 123°42'1818.0
2016-Jun-24 21:34N 49°23' W 123°16'3 3.0
2016-Jun-24 20:34N 49°21' W 123°20'2019.9
2016-Jun-24 19:34N 49°14' W 123°48'5 5.3
2016-Jun-24 18:34N 49°12' W 123°56'2019.5
2016-Jun-24 17:33N 49°19' W 123°28'8 8.4
2016-Jun-24 16:33N 49°23' W 123°16'1413.9
2016-Jun-24 15:34N 49°17' W 123°36'1515.0
2016-Jun-24 14:33N 49°12' W 123°57'0 0.0
2016-Jun-24 13:32N 49°12' W 123°57'0 0.0
2016-Jun-24 12:32N 49°12' W 123°57'0 0.0
2016-Jun-24 11:32N 49°12' W 123°57'0 0.0
2016-Jun-24 10:32N 49°12' W 123°57'0 0.0
2016-Jun-24 09:32N 49°12' W 123°57'0 0.0
2016-Jun-24 08:32N 49°12' W 123°57'0 0.0
2016-Jun-24 07:32N 49°12' W 123°57'0 0.0
2016-Jun-24 04:32N 49°12' W 123°57'0 0.1
2016-Jun-24 03:33N 49°12' W 123°57'1918.5
2016-Jun-24 02:33N 49°18' W 123°31'1010.3
2016-Jun-24 01:33N 49°23' W 123°16'1212.0
2016-Jun-24 00:34N 49°17' W 123°33'1716.9
2016-Jun-23 23:33N 49°12' W 123°57'1010.4
2016-Jun-23 22:34N 49°17' W 123°44'1918.7
2016-Jun-23 21:34N 49°23' W 123°17'4 3.6
2016-Jun-23 20:34N 49°20' W 123°20'2020.2
2016-Jun-23 19:34N 49°14' W 123°50'6 5.6
2016-Jun-23 18:33N 49°12' W 123°57'0 0.0
2016-Jun-23 17:31N 49°12' W 123°57'0 0.0
2016-Jun-23 16:31N 49°12' W 123°57'0 0.0
2016-Jun-23 15:13N 49°12' W 123°57'0 0.0
2016-Jun-23 14:31N 49°12' W 123°57'0 0.0
2016-Jun-23 13:31N 49°12' W 123°57'0 0.0
2016-Jun-23 12:34N 49°12' W 123°57'0 0.0
2016-Jun-23 11:31N 49°12' W 123°57'0 0.0
2016-Jun-23 10:31N 49°12' W 123°57'0 0.0
2016-Jun-23 09:31N 49°12' W 123°57'0 0.0
2016-Jun-23 08:34N 49°12' W 123°57'0 0.0
2016-Jun-23 07:34N 49°12' W 123°57'0 0.0
2016-Jun-23 04:31N 49°12' W 123°57'0 0.0
2016-Jun-23 03:31N 49°12' W 123°57'0 0.0
2016-Jun-23 02:31N 49°12' W 123°57'0 0.0
2016-Jun-23 01:25N 49°12' W 123°57'0 0.0
2016-Jun-23 00:31N 49°12' W 123°57'0 0.0
2016-Jun-22 23:31N 49°12' W 123°57'0 0.0
2016-Jun-22 22:31N 49°12' W 123°57'0 0.0
2016-Jun-22 21:31N 49°12' W 123°57'0 0.2
2016-Jun-22 20:34N 49°12' W 123°57'7 7.2
2016-Jun-22 19:34N 49°14' W 123°47'2 2.0
2016-Jun-22 18:34N 49°16' W 123°48'9 9.0
2016-Jun-22 17:33N 49°16' W 123°35'2 1.6
2016-Jun-22 16:33N 49°15' W 123°37'9 9.3
2016-Jun-22 15:33N 49°14' W 123°51'5 3.7
2016-Jun-22 14:17N 49°12' W 123°57'0 0.0
2016-Jun-22 13:32N 49°12' W 123°57'0 0.0
2016-Jun-22 12:32N 49°12' W 123°57'0 0.0
2016-Jun-22 11:32N 49°12' W 123°57'0 0.0
2016-Jun-22 10:20N 49°12' W 123°57'0 0.0
2016-Jun-22 09:32N 49°12' W 123°57'0 0.0
2016-Jun-22 08:32N 49°12' W 123°57'0 0.0
2016-Jun-22 07:32N 49°12' W 123°57'0 0.0
2016-Jun-22 06:32N 49°12' W 123°57'0 0.0
2016-Jun-22 05:26N 49°12' W 123°57'0 0.0
2016-Jun-22 04:32N 49°12' W 123°57'0 0.0
2016-Jun-22 03:26N 49°12' W 123°57'0 0.0
2016-Jun-22 02:26N 49°12' W 123°57'0 0.0
2016-Jun-22 01:32N 49°12' W 123°57'0 0.0
2016-Jun-22 00:32N 49°12' W 123°57'0 0.0
2016-Jun-21 23:32N 49°12' W 123°57'0 0.0
2016-Jun-21 22:29N 49°12' W 123°57'0 0.0
2016-Jun-21 21:32N 49°12' W 123°57'0 0.0
2016-Jun-21 20:29N 49°12' W 123°57'0 0.0
2016-Jun-21 19:29N 49°12' W 123°57'0 0.0
2016-Jun-21 18:29N 49°12' W 123°57'0 0.0
2016-Jun-21 17:32N 49°12' W 123°57'0 0.0
2016-Jun-21 16:32N 49°12' W 123°57'0 0.0
2016-Jun-21 15:32N 49°12' W 123°57'0 0.0
2016-Jun-21 14:32N 49°12' W 123°57'0 0.0
2016-Jun-21 13:32N 49°12' W 123°57'0 0.0
2016-Jun-21 12:32N 49°12' W 123°57'0 0.0
2016-Jun-21 11:20N 49°12' W 123°57'0 0.0
2016-Jun-21 10:32N 49°12' W 123°57'0 0.0
2016-Jun-21 09:32N 49°12' W 123°57'0 0.0
2016-Jun-21 08:32N 49°12' W 123°57'0 0.0
2016-Jun-21 07:20N 49°12' W 123°57'0 0.0
2016-Jun-21 04:29N 49°12' W 123°57'0 0.0
2016-Jun-21 03:32N 49°12' W 123°57'0 0.0
2016-Jun-21 02:32N 49°12' W 123°57'0 0.0
2016-Jun-21 01:32N 49°12' W 123°57'1211.9
2016-Jun-21 00:33N 49°17' W 123°41'1717.0
2016-Jun-20 23:33N 49°23' W 123°16'8 7.9
2016-Jun-20 22:33N 49°25' W 123°27'5 4.9
2016-Jun-20 21:34N 49°25' W 123°20'3 3.3
2016-Jun-20 20:34N 49°23' W 123°16'1918.6
2016-Jun-20 19:33N 49°15' W 123°42'1010.5
2016-Jun-20 18:33N 49°12' W 123°57'0 0.0
2016-Jun-20 17:33N 49°12' W 123°57'0 0.0
2016-Jun-20 16:31N 49°12' W 123°57'0 0.0
2016-Jun-20 15:31N 49°12' W 123°57'0 0.0
2016-Jun-20 14:31N 49°12' W 123°57'0 0.0
2016-Jun-20 13:31N 49°12' W 123°57'0 0.0
2016-Jun-20 12:31N 49°12' W 123°57'0 0.0
2016-Jun-20 11:31N 49°12' W 123°57'0 0.0
2016-Jun-20 10:31N 49°12' W 123°57'0 0.0
2016-Jun-20 09:31N 49°12' W 123°57'0 0.0
2016-Jun-20 08:31N 49°12' W 123°57'0 0.4
2016-Jun-20 07:34N 49°12' W 123°57'2019.8
2016-Jun-20 06:34N 49°18' W 123°28'1010.0
2016-Jun-20 05:34N 49°25' W 123°17'6 6.3
2016-Jun-20 04:34N 49°26' W 123°27'8 7.6
2016-Jun-20 03:33N 49°23' W 123°16'1717.2
2016-Jun-20 02:34N 49°16' W 123°40'1211.7
2016-Jun-20 01:33N 49°12' W 123°57'1312.6
2016-Jun-20 00:34N 49°17' W 123°40'1616.3
2016-Jun-19 23:33N 49°23' W 123°16'7 7.5
2016-Jun-19 22:34N 49°18' W 123°26'2020.2
2016-Jun-19 21:33N 49°13' W 123°55'2 1.5
2016-Jun-19 20:28N 49°12' W 123°57'0 0.0
2016-Jun-19 19:28N 49°12' W 123°57'0 0.0
2016-Jun-19 18:31N 49°12' W 123°57'0 0.0
2016-Jun-19 17:28N 49°12' W 123°57'0 0.0
2016-Jun-19 16:31N 49°12' W 123°57'0 0.0
2016-Jun-19 15:31N 49°12' W 123°57'0 0.0
2016-Jun-19 14:31N 49°12' W 123°57'0 0.0
2016-Jun-19 13:28N 49°12' W 123°57'0 0.0
2016-Jun-19 12:28N 49°12' W 123°57'0 0.0
2016-Jun-19 11:28N 49°12' W 123°57'0 0.0
2016-Jun-19 10:28N 49°12' W 123°57'0 0.0
2016-Jun-19 09:28N 49°12' W 123°57'0 0.0
2016-Jun-19 08:22N 49°12' W 123°57'0 0.0
2016-Jun-19 07:28N 49°12' W 123°57'0 0.0
2016-Jun-19 06:22N 49°12' W 123°57'0 0.0
2016-Jun-19 05:28N 49°12' W 123°57'0 0.0
2016-Jun-19 04:28N 49°12' W 123°57'0 0.0
2016-Jun-19 03:31N 49°12' W 123°57'0 0.0
2016-Jun-19 02:19N 49°12' W 123°57'0 0.0
2016-Jun-19 01:31N 49°12' W 123°57'0 0.0
2016-Jun-19 00:28N 49°12' W 123°57'0 0.0
2016-Jun-18 23:28N 49°12' W 123°57'0 0.0
2016-Jun-18 22:28N 49°12' W 123°57'0 0.0
2016-Jun-18 21:22N 49°12' W 123°57'0 0.0
2016-Jun-18 20:28N 49°12' W 123°57'0 0.0
2016-Jun-18 19:25N 49°12' W 123°57'0 0.0
2016-Jun-18 18:31N 49°12' W 123°57'0 0.0
2016-Jun-18 17:28N 49°12' W 123°57'0 0.0
2016-Jun-18 16:31N 49°12' W 123°57'0 0.0
2016-Jun-18 15:25N 49°12' W 123°57'0 0.0
2016-Jun-18 14:28N 49°12' W 123°57'0 0.0
2016-Jun-18 13:31N 49°12' W 123°57'0 0.0
2016-Jun-18 12:16N 49°12' W 123°57'0 0.0
2016-Jun-18 11:28N 49°12' W 123°57'0 0.0
2016-Jun-18 10:28N 49°12' W 123°57'0 0.0
2016-Jun-18 09:28N 49°12' W 123°57'0 0.0
2016-Jun-18 08:22N 49°12' W 123°57'0 0.0
2016-Jun-18 07:28N 49°12' W 123°57'0 0.0
2016-Jun-18 06:28N 49°12' W 123°57'0 0.0
2016-Jun-18 05:28N 49°12' W 123°57'0 0.0
2016-Jun-18 04:28N 49°12' W 123°57'2 2.4
2016-Jun-18 03:33N 49°13' W 123°55'1818.3
2016-Jun-18 02:34N 49°18' W 123°28'9 8.7
2016-Jun-18 01:33N 49°23' W 123°16'1616.1
2016-Jun-18 00:34N 49°16' W 123°39'1312.8
2016-Jun-17 23:33N 49°12' W 123°57'1212.2
2016-Jun-17 22:33N 49°16' W 123°40'1716.4
2016-Jun-17 21:32N 49°23' W 123°16'8 7.8
2016-Jun-17 20:33N 49°26' W 123°27'6 5.7
2016-Jun-17 19:33N 49°26' W 123°18'4 3.6
2016-Jun-17 18:33N 49°23' W 123°16'1717.0
2016-Jun-17 17:33N 49°16' W 123°40'1211.9
2016-Jun-17 16:34N 49°12' W 123°57'0 0.0
2016-Jun-17 15:32N 49°12' W 123°57'0 0.0
2016-Jun-17 14:32N 49°12' W 123°57'0 0.0
2016-Jun-17 13:32N 49°12' W 123°57'0 0.0
2016-Jun-17 12:32N 49°12' W 123°57'0 0.0
2016-Jun-17 11:32N 49°12' W 123°57'0 0.0
2016-Jun-17 10:32N 49°12' W 123°57'0 0.0
2016-Jun-17 09:32N 49°12' W 123°57'0 0.0
2016-Jun-17 08:26N 49°12' W 123°57'0 0.0
2016-Jun-17 07:32N 49°12' W 123°57'0 0.0
2016-Jun-17 06:32N 49°12' W 123°57'0 0.0
2016-Jun-17 05:29N 49°12' W 123°57'0 0.0
2016-Jun-17 04:26N 49°12' W 123°57'0 0.0
2016-Jun-17 03:20N 49°12' W 123°57'0 0.0
2016-Jun-17 02:26N 49°12' W 123°57'  
Track history (hours):
 
Tides and Currents Weather Stations Pressure Air Temp Water Temp Dewpoint Dewpoint Depression Visibility Wind Speed Wind Dir Waves Ship Positions

Queen Of Cowichan

Last reported at 2016-Jun-27 01:33 UTC. Time now 2016-Jun-27 02:26 UTC.
Position N 49°23' W 123°16'.

Length 139 m; draft 5.5 m.

Type: Passenger vessel. MMSI: 316001251.

Date/timePositionNaut miles runAvg speedWind from/ knotsBaromVisibWave heightAir tempDewpointWater temp
2016-Jun-27 01:33N 49°23' W 123°16'1515.4
2016-Jun-27 00:33N 49°16' W 123°38'1413.6
2016-Jun-26 23:33N 49°12' W 123°57'1010.2
2016-Jun-26 22:33N 49°16' W 123°43'1918.9
2016-Jun-26 21:34N 49°23' W 123°16'4 4.2
2016-Jun-26 20:34N 49°20' W 123°20'2019.5
2016-Jun-26 19:33N 49°14' W 123°49'6 6.0
2016-Jun-26 18:33N 49°12' W 123°57'0 0.0
2016-Jun-26 17:26N 49°12' W 123°57'0 0.0
2016-Jun-26 16:32N 49°12' W 123°57'0 0.0
2016-Jun-26 15:32N 49°12' W 123°57'0 0.0
2016-Jun-26 14:32N 49°12' W 123°57'0 0.0
2016-Jun-26 13:29N 49°12' W 123°57'0 0.0
2016-Jun-26 12:32N 49°12' W 123°57'0 0.0
2016-Jun-26 11:32N 49°12' W 123°57'0 0.0
2016-Jun-26 10:29N 49°12' W 123°57'0 0.0
2016-Jun-26 09:20N 49°12' W 123°57'0 0.0
2016-Jun-26 08:32N 49°12' W 123°57'0 0.0
2016-Jun-26 07:32N 49°12' W 123°57'0 0.0
2016-Jun-26 02:08N 49°12' W 123°57'0 0.0
2016-Jun-26 01:23N 49°12' W 123°57'0 0.0
2016-Jun-25 23:32N 49°12' W 123°57'0 0.0
2016-Jun-25 22:32N 49°12' W 123°57'0 0.0
2016-Jun-25 21:32N 49°12' W 123°57'0 0.0
2016-Jun-25 20:26N 49°12' W 123°57'0 0.0
2016-Jun-25 19:32N 49°12' W 123°57'0 0.0
2016-Jun-25 18:32N 49°12' W 123°57'0 0.0
2016-Jun-25 17:32N 49°12' W 123°57'0 0.0
2016-Jun-25 16:26N 49°12' W 123°57'0 0.0
2016-Jun-25 15:20N 49°12' W 123°57'0 0.0
2016-Jun-25 14:32N 49°12' W 123°57'0 0.0
2016-Jun-25 13:20N 49°12' W 123°57'0 0.0
2016-Jun-25 12:32N 49°12' W 123°57'0 0.0
2016-Jun-25 11:32N 49°12' W 123°57'0 0.0
2016-Jun-25 09:14N 49°12' W 123°57'0 0.0
2016-Jun-25 06:32N 49°12' W 123°57'0 0.0
2016-Jun-25 05:32N 49°12' W 123°57'0 0.0
2016-Jun-25 04:32N 49°12' W 123°57'0 0.0
2016-Jun-25 03:34N 49°12' W 123°57'1818.3
2016-Jun-25 02:33N 49°18' W 123°31'1110.6
2016-Jun-25 01:33N 49°23' W 123°16'1312.7
2016-Jun-25 00:33N 49°17' W 123°33'1616.4
2016-Jun-24 23:33N 49°12' W 123°57'1111.0
2016-Jun-24 22:33N 49°16' W 123°42'1818.0
2016-Jun-24 21:34N 49°23' W 123°16'3 3.0
2016-Jun-24 20:34N 49°21' W 123°20'2019.9
2016-Jun-24 19:34N 49°14' W 123°48'5 5.3
2016-Jun-24 18:34N 49°12' W 123°56'2019.5
2016-Jun-24 17:33N 49°19' W 123°28'8 8.4
2016-Jun-24 16:33N 49°23' W 123°16'1413.9
2016-Jun-24 15:34N 49°17' W 123°36'1515.0
2016-Jun-24 14:33N 49°12' W 123°57'0 0.0
2016-Jun-24 13:32N 49°12' W 123°57'0 0.0
2016-Jun-24 12:32N 49°12' W 123°57'0 0.0
2016-Jun-24 11:32N 49°12' W 123°57'0 0.0
2016-Jun-24 10:32N 49°12' W 123°57'0 0.0
2016-Jun-24 09:32N 49°12' W 123°57'0 0.0
2016-Jun-24 08:32N 49°12' W 123°57'0 0.0
2016-Jun-24 07:32N 49°12' W 123°57'0 0.0
2016-Jun-24 04:32N 49°12' W 123°57'0 0.1
2016-Jun-24 03:33N 49°12' W 123°57'1918.5
2016-Jun-24 02:33N 49°18' W 123°31'1010.3
2016-Jun-24 01:33N 49°23' W 123°16'1212.0
2016-Jun-24 00:34N 49°17' W 123°33'1716.9
2016-Jun-23 23:33N 49°12' W 123°57'1010.4
2016-Jun-23 22:34N 49°17' W 123°44'1918.7
2016-Jun-23 21:34N 49°23' W 123°17'4 3.6
2016-Jun-23 20:34N 49°20' W 123°20'2020.2
2016-Jun-23 19:34N 49°14' W 123°50'6 5.6
2016-Jun-23 18:33N 49°12' W 123°57'0 0.0
2016-Jun-23 17:31N 49°12' W 123°57'0 0.0
2016-Jun-23 16:31N 49°12' W 123°57'0 0.0
2016-Jun-23 15:13N 49°12' W 123°57'0 0.0
2016-Jun-23 14:31N 49°12' W 123°57'0 0.0
2016-Jun-23 13:31N 49°12' W 123°57'0 0.0
2016-Jun-23 12:34N 49°12' W 123°57'0 0.0
2016-Jun-23 11:31N 49°12' W 123°57'0 0.0
2016-Jun-23 10:31N 49°12' W 123°57'0 0.0
2016-Jun-23 09:31N 49°12' W 123°57'0 0.0
2016-Jun-23 08:34N 49°12' W 123°57'0 0.0
2016-Jun-23 07:34N 49°12' W 123°57'0 0.0
2016-Jun-23 04:31N 49°12' W 123°57'0 0.0
2016-Jun-23 03:31N 49°12' W 123°57'0 0.0
2016-Jun-23 02:31N 49°12' W 123°57'0 0.0
2016-Jun-23 01:25N 49°12' W 123°57'0 0.0
2016-Jun-23 00:31N 49°12' W 123°57'0 0.0
2016-Jun-22 23:31N 49°12' W 123°57'0 0.0
2016-Jun-22 22:31N 49°12' W 123°57'0 0.0
2016-Jun-22 21:31N 49°12' W 123°57'0 0.2
2016-Jun-22 20:34N 49°12' W 123°57'7 7.2
2016-Jun-22 19:34N 49°14' W 123°47'2 2.0
2016-Jun-22 18:34N 49°16' W 123°48'9 9.0
2016-Jun-22 17:33N 49°16' W 123°35'2 1.6
2016-Jun-22 16:33N 49°15' W 123°37'9 9.3
2016-Jun-22 15:33N 49°14' W 123°51'5 3.7
2016-Jun-22 14:17N 49°12' W 123°57'0 0.0
2016-Jun-22 13:32N 49°12' W 123°57'0 0.0
2016-Jun-22 12:32N 49°12' W 123°57'0 0.0
2016-Jun-22 11:32N 49°12' W 123°57'0 0.0
2016-Jun-22 10:20N 49°12' W 123°57'0 0.0
2016-Jun-22 09:32N 49°12' W 123°57'0 0.0
2016-Jun-22 08:32N 49°12' W 123°57'0 0.0
2016-Jun-22 07:32N 49°12' W 123°57'0 0.0
2016-Jun-22 06:32N 49°12' W 123°57'0 0.0
2016-Jun-22 05:26N 49°12' W 123°57'0 0.0
2016-Jun-22 04:32N 49°12' W 123°57'0 0.0
2016-Jun-22 03:26N 49°12' W 123°57'0 0.0
2016-Jun-22 02:26N 49°12' W 123°57'0 0.0
2016-Jun-22 01:32N 49°12' W 123°57'0 0.0
2016-Jun-22 00:32N 49°12' W 123°57'0 0.0
2016-Jun-21 23:32N 49°12' W 123°57'0 0.0
2016-Jun-21 22:29N 49°12' W 123°57'0 0.0
2016-Jun-21 21:32N 49°12' W 123°57'0 0.0
2016-Jun-21 20:29N 49°12' W 123°57'0 0.0
2016-Jun-21 19:29N 49°12' W 123°57'0 0.0
2016-Jun-21 18:29N 49°12' W 123°57'0 0.0
2016-Jun-21 17:32N 49°12' W 123°57'0 0.0
2016-Jun-21 16:32N 49°12' W 123°57'0 0.0
2016-Jun-21 15:32N 49°12' W 123°57'0 0.0
2016-Jun-21 14:32N 49°12' W 123°57'0 0.0
2016-Jun-21 13:32N 49°12' W 123°57'0 0.0
2016-Jun-21 12:32N 49°12' W 123°57'0 0.0
2016-Jun-21 11:20N 49°12' W 123°57'0 0.0
2016-Jun-21 10:32N 49°12' W 123°57'0 0.0
2016-Jun-21 09:32N 49°12' W 123°57'0 0.0
2016-Jun-21 08:32N 49°12' W 123°57'0 0.0
2016-Jun-21 07:20N 49°12' W 123°57'0 0.0
2016-Jun-21 04:29N 49°12' W 123°57'0 0.0
2016-Jun-21 03:32N 49°12' W 123°57'0 0.0
2016-Jun-21 02:32N 49°12' W 123°57'0 0.0
2016-Jun-21 01:32N 49°12' W 123°57'1211.9
2016-Jun-21 00:33N 49°17' W 123°41'1717.0
2016-Jun-20 23:33N 49°23' W 123°16'8 7.9
2016-Jun-20 22:33N 49°25' W 123°27'5 4.9
2016-Jun-20 21:34N 49°25' W 123°20'3 3.3
2016-Jun-20 20:34N 49°23' W 123°16'1918.6
2016-Jun-20 19:33N 49°15' W 123°42'1010.5
2016-Jun-20 18:33N 49°12' W 123°57'0 0.0
2016-Jun-20 17:33N 49°12' W 123°57'0 0.0
2016-Jun-20 16:31N 49°12' W 123°57'0 0.0
2016-Jun-20 15:31N 49°12' W 123°57'0 0.0
2016-Jun-20 14:31N 49°12' W 123°57'0 0.0
2016-Jun-20 13:31N 49°12' W 123°57'0 0.0
2016-Jun-20 12:31N 49°12' W 123°57'0 0.0
2016-Jun-20 11:31N 49°12' W 123°57'0 0.0
2016-Jun-20 10:31N 49°12' W 123°57'0 0.0
2016-Jun-20 09:31N 49°12' W 123°57'0 0.0
2016-Jun-20 08:31N 49°12' W 123°57'0 0.4
2016-Jun-20 07:34N 49°12' W 123°57'2019.8
2016-Jun-20 06:34N 49°18' W 123°28'1010.0
2016-Jun-20 05:34N 49°25' W 123°17'6 6.3
2016-Jun-20 04:34N 49°26' W 123°27'8 7.6
2016-Jun-20 03:33N 49°23' W 123°16'1717.2
2016-Jun-20 02:34N 49°16' W 123°40'1211.7
2016-Jun-20 01:33N 49°12' W 123°57'1312.6
2016-Jun-20 00:34N 49°17' W 123°40'1616.3
2016-Jun-19 23:33N 49°23' W 123°16'7 7.5
2016-Jun-19 22:34N 49°18' W 123°26'2020.2
2016-Jun-19 21:33N 49°13' W 123°55'2 1.5
2016-Jun-19 20:28N 49°12' W 123°57'0 0.0
2016-Jun-19 19:28N 49°12' W 123°57'0 0.0
2016-Jun-19 18:31N 49°12' W 123°57'0 0.0
2016-Jun-19 17:28N 49°12' W 123°57'0 0.0
2016-Jun-19 16:31N 49°12' W 123°57'0 0.0
2016-Jun-19 15:31N 49°12' W 123°57'0 0.0
2016-Jun-19 14:31N 49°12' W 123°57'0 0.0
2016-Jun-19 13:28N 49°12' W 123°57'0 0.0
2016-Jun-19 12:28N 49°12' W 123°57'0 0.0
2016-Jun-19 11:28N 49°12' W 123°57'0 0.0
2016-Jun-19 10:28N 49°12' W 123°57'0 0.0
2016-Jun-19 09:28N 49°12' W 123°57'0 0.0
2016-Jun-19 08:22N 49°12' W 123°57'0 0.0
2016-Jun-19 07:28N 49°12' W 123°57'0 0.0
2016-Jun-19 06:22N 49°12' W 123°57'0 0.0
2016-Jun-19 05:28N 49°12' W 123°57'0 0.0
2016-Jun-19 04:28N 49°12' W 123°57'0 0.0
2016-Jun-19 03:31N 49°12' W 123°57'0 0.0
2016-Jun-19 02:19N 49°12' W 123°57'0 0.0
2016-Jun-19 01:31N 49°12' W 123°57'0 0.0
2016-Jun-19 00:28N 49°12' W 123°57'0 0.0
2016-Jun-18 23:28N 49°12' W 123°57'0 0.0
2016-Jun-18 22:28N 49°12' W 123°57'0 0.0
2016-Jun-18 21:22N 49°12' W 123°57'0 0.0
2016-Jun-18 20:28N 49°12' W 123°57'0 0.0
2016-Jun-18 19:25N 49°12' W 123°57'0 0.0
2016-Jun-18 18:31N 49°12' W 123°57'0 0.0
2016-Jun-18 17:28N 49°12' W 123°57'0 0.0
2016-Jun-18 16:31N 49°12' W 123°57'0 0.0
2016-Jun-18 15:25N 49°12' W 123°57'0 0.0
2016-Jun-18 14:28N 49°12' W 123°57'0 0.0
2016-Jun-18 13:31N 49°12' W 123°57'0 0.0
2016-Jun-18 12:16N 49°12' W 123°57'0 0.0
2016-Jun-18 11:28N 49°12' W 123°57'0 0.0
2016-Jun-18 10:28N 49°12' W 123°57'0 0.0
2016-Jun-18 09:28N 49°12' W 123°57'0 0.0
2016-Jun-18 08:22N 49°12' W 123°57'0 0.0
2016-Jun-18 07:28N 49°12' W 123°57'0 0.0
2016-Jun-18 06:28N 49°12' W 123°57'0 0.0
2016-Jun-18 05:28N 49°12' W 123°57'0 0.0
2016-Jun-18 04:28N 49°12' W 123°57'2 2.4
2016-Jun-18 03:33N 49°13' W 123°55'1818.3
2016-Jun-18 02:34N 49°18' W 123°28'9 8.7
2016-Jun-18 01:33N 49°23' W 123°16'1616.1
2016-Jun-18 00:34N 49°16' W 123°39'1312.8
2016-Jun-17 23:33N 49°12' W 123°57'1212.2
2016-Jun-17 22:33N 49°16' W 123°40'1716.4
2016-Jun-17 21:32N 49°23' W 123°16'8 7.8
2016-Jun-17 20:33N 49°26' W 123°27'6 5.7
2016-Jun-17 19:33N 49°26' W 123°18'4 3.6
2016-Jun-17 18:33N 49°23' W 123°16'1717.0
2016-Jun-17 17:33N 49°16' W 123°40'1211.9
2016-Jun-17 16:34N 49°12' W 123°57'0 0.0
2016-Jun-17 15:32N 49°12' W 123°57'0 0.0
2016-Jun-17 14:32N 49°12' W 123°57'0 0.0
2016-Jun-17 13:32N 49°12' W 123°57'0 0.0
2016-Jun-17 12:32N 49°12' W 123°57'0 0.0
2016-Jun-17 11:32N 49°12' W 123°57'0 0.0
2016-Jun-17 10:32N 49°12' W 123°57'0 0.0
2016-Jun-17 09:32N 49°12' W 123°57'0 0.0
2016-Jun-17 08:26N 49°12' W 123°57'0 0.0
2016-Jun-17 07:32N 49°12' W 123°57'0 0.0
2016-Jun-17 06:32N 49°12' W 123°57'0 0.0
2016-Jun-17 05:29N 49°12' W 123°57'0 0.0
2016-Jun-17 04:26N 49°12' W 123°57'0 0.0
2016-Jun-17 03:20N 49°12' W 123°57'0 0.0
2016-Jun-17 02:26N 49°12' W 123°57'  

Dump ship's entire track history